CMB552 EPRZ-LROP
Flight info
| Callsign | CMB552 |
|---|---|
| Flight time | 1h 2m |
| Altitude | 39000 |
| Route | LUMEQ DCT KEFIR DCT KENIN DCT KARIL DCT REBLA DCT RUTUV DCT TOSVI |
| Aircraft | B77W/H-SDE1E2E3FGHIJ2J3J4J5M1RWXY/LB1D1 |
Departure
| Time | 2026-05-04 19:46 |
|---|---|
| Airport | Rzeszów-Jasionka Airport (EPRZ) |
Arrival
| Time | 2026-05-04 20:49 |
|---|---|
| Airport | Bucharest Henri Coandă International Airport (LROP) |
| Time | Latitude | Longitude | Altitude | Speed | Heading |
|---|---|---|---|---|---|
| 2026-05-04 19:21 | 50.11401 | 22.02547 | 692 ft | 0 kts | 1° |
| 2026-05-04 19:39 | 50.11362 | 22.02553 | 689 ft | 0 kts | 88° |
| 2026-05-04 19:39 | 50.11337 | 22.02554 | 687 ft | 0 kts | 88° |
| 2026-05-04 19:40 | 50.11324 | 22.02555 | 690 ft | 0 kts | 88° |
| 2026-05-04 19:41 | 50.11325 | 22.02676 | 691 ft | 18 kts | 94° |
| 2026-05-04 19:42 | 50.11282 | 22.02742 | 685 ft | 16 kts | 161° |
| 2026-05-04 19:42 | 50.11117 | 22.02743 | 683 ft | 26 kts | 183° |
| 2026-05-04 19:42 | 50.10995 | 22.02802 | 683 ft | 15 kts | 115° |
| 2026-05-04 19:42 | 50.10989 | 22.03020 | 687 ft | 31 kts | 91° |
| 2026-05-04 19:43 | 50.10980 | 22.03404 | 683 ft | 37 kts | 92° |
| 2026-05-04 19:43 | 50.10974 | 22.03798 | 684 ft | 37 kts | 91° |
| 2026-05-04 19:43 | 50.10965 | 22.04188 | 683 ft | 36 kts | 90° |
| 2026-05-04 19:43 | 50.10951 | 22.04506 | 683 ft | 16 kts | 96° |
| 2026-05-04 19:44 | 50.10964 | 22.04546 | 683 ft | 2 kts | 15° |
| 2026-05-04 19:44 | 50.10975 | 22.04533 | 679 ft | 2 kts | 310° |
| 2026-05-04 19:44 | 50.10973 | 22.04510 | 680 ft | 3 kts | 250° |
| 2026-05-04 19:44 | 50.10967 | 22.04447 | 678 ft | 0 kts | 269° |
| 2026-05-04 19:46 | 50.10967 | 22.04417 | 679 ft | 27 kts | 270° |
| 2026-05-04 19:46 | 50.10975 | 22.03428 | 689 ft | 154 kts | 271° |
| 2026-05-04 19:46 | 50.11023 | 22.01262 | 996 ft | 232 kts | 272° |
| 2026-05-04 19:46 | 50.11143 | 21.98670 | 2461 ft | 250 kts | 271° |
| 2026-05-04 19:47 | 50.11216 | 21.95872 | 3873 ft | 260 kts | 271° |
| 2026-05-04 19:47 | 50.11253 | 21.93124 | 5012 ft | 249 kts | 272° |
| 2026-05-04 19:47 | 50.11174 | 21.90471 | 5673 ft | 250 kts | 256° |
| 2026-05-04 19:47 | 50.10306 | 21.88077 | 6089 ft | 266 kts | 227° |
| 2026-05-04 19:48 | 50.08856 | 21.86136 | 6221 ft | 274 kts | 221° |
| 2026-05-04 19:48 | 50.07355 | 21.84334 | 6354 ft | 272 kts | 218° |
| 2026-05-04 19:48 | 50.05846 | 21.82570 | 6382 ft | 271 kts | 218° |
| 2026-05-04 19:48 | 50.04359 | 21.80831 | 6359 ft | 271 kts | 218° |
| 2026-05-04 19:49 | 50.02865 | 21.79044 | 6305 ft | 270 kts | 219° |
| 2026-05-04 19:49 | 50.01405 | 21.77247 | 6301 ft | 268 kts | 220° |
| 2026-05-04 19:49 | 49.99955 | 21.75424 | 6215 ft | 269 kts | 220° |
| 2026-05-04 19:49 | 49.98500 | 21.73581 | 6112 ft | 271 kts | 220° |
| 2026-05-04 19:50 | 49.97040 | 21.71727 | 6184 ft | 271 kts | 220° |
| 2026-05-04 19:50 | 49.95582 | 21.69875 | 6973 ft | 272 kts | 220° |
| 2026-05-04 19:50 | 49.94120 | 21.68018 | 8193 ft | 272 kts | 220° |
| 2026-05-04 19:50 | 49.92557 | 21.66389 | 9261 ft | 276 kts | 201° |
| 2026-05-04 19:51 | 49.90630 | 21.66158 | 10265 ft | 287 kts | 171° |
| 2026-05-04 19:51 | 49.88672 | 21.67060 | 10966 ft | 304 kts | 165° |
| 2026-05-04 19:51 | 49.86540 | 21.68102 | 11226 ft | 338 kts | 165° |
| 2026-05-04 19:51 | 49.84186 | 21.69248 | 11531 ft | 369 kts | 164° |
| 2026-05-04 19:52 | 49.81692 | 21.70461 | 12384 ft | 381 kts | 164° |
| 2026-05-04 19:52 | 49.79143 | 21.71697 | 13456 ft | 388 kts | 164° |
| 2026-05-04 19:52 | 49.76551 | 21.72945 | 14509 ft | 393 kts | 164° |
| 2026-05-04 19:52 | 49.73922 | 21.74202 | 15540 ft | 398 kts | 164° |
| 2026-05-04 19:53 | 49.71259 | 21.75469 | 16532 ft | 404 kts | 164° |
| 2026-05-04 19:53 | 49.68556 | 21.76746 | 17561 ft | 409 kts | 164° |
| 2026-05-04 19:53 | 49.65823 | 21.78026 | 18589 ft | 413 kts | 164° |
| 2026-05-04 19:53 | 49.63054 | 21.79304 | 19448 ft | 419 kts | 165° |
| 2026-05-04 19:54 | 49.60232 | 21.80589 | 20213 ft | 427 kts | 165° |
| 2026-05-04 19:54 | 49.57355 | 21.81868 | 20958 ft | 434 kts | 165° |
| 2026-05-04 19:54 | 49.54429 | 21.83158 | 21747 ft | 440 kts | 165° |
| 2026-05-04 19:54 | 49.51488 | 21.84558 | 22470 ft | 446 kts | 163° |
| 2026-05-04 19:55 | 49.48509 | 21.86051 | 23146 ft | 455 kts | 163° |
| 2026-05-04 19:55 | 49.45484 | 21.87580 | 23854 ft | 460 kts | 163° |
| 2026-05-04 19:55 | 49.42433 | 21.89084 | 24582 ft | 462 kts | 163° |
| 2026-05-04 19:55 | 49.39348 | 21.90487 | 25320 ft | 462 kts | 165° |
| 2026-05-04 19:56 | 49.36198 | 21.91595 | 25935 ft | 467 kts | 170° |
| 2026-05-04 19:56 | 49.32969 | 21.92302 | 26538 ft | 471 kts | 174° |
| 2026-05-04 19:56 | 49.29695 | 21.92627 | 27237 ft | 472 kts | 179° |
| 2026-05-04 19:56 | 49.26401 | 21.92655 | 27899 ft | 475 kts | 180° |
| 2026-05-04 19:57 | 49.23085 | 21.92615 | 28471 ft | 480 kts | 181° |
| 2026-05-04 19:57 | 49.19711 | 21.92538 | 28835 ft | 488 kts | 181° |
| 2026-05-04 19:57 | 49.16300 | 21.92465 | 29292 ft | 494 kts | 181° |
| 2026-05-04 19:57 | 49.12847 | 21.92455 | 29753 ft | 498 kts | 180° |
| 2026-05-04 19:58 | 49.09380 | 21.92481 | 30227 ft | 501 kts | 180° |
| 2026-05-04 19:58 | 49.05888 | 21.92508 | 30678 ft | 502 kts | 180° |
| 2026-05-04 19:58 | 49.02396 | 21.92533 | 31157 ft | 502 kts | 180° |
| 2026-05-04 19:58 | 48.98894 | 21.92558 | 31593 ft | 503 kts | 180° |
| 2026-05-04 19:59 | 48.95393 | 21.92583 | 31991 ft | 504 kts | 180° |
| 2026-05-04 19:59 | 48.91892 | 21.92606 | 32593 ft | 500 kts | 180° |
| 2026-05-04 19:59 | 48.88441 | 21.92627 | 33408 ft | 493 kts | 180° |
| 2026-05-04 19:59 | 48.85029 | 21.92622 | 34100 ft | 488 kts | 180° |
| 2026-05-04 20:00 | 48.81629 | 21.92591 | 34504 ft | 489 kts | 180° |
| 2026-05-04 20:00 | 48.78209 | 21.92579 | 34720 ft | 493 kts | 180° |
| 2026-05-04 20:00 | 48.74770 | 21.92578 | 35003 ft | 495 kts | 180° |
| 2026-05-04 20:00 | 48.71334 | 21.92583 | 35554 ft | 489 kts | 180° |
| 2026-05-04 20:01 | 48.67961 | 21.92593 | 36237 ft | 483 kts | 180° |
| 2026-05-04 20:01 | 48.64602 | 21.92600 | 36629 ft | 483 kts | 180° |
| 2026-05-04 20:01 | 48.61237 | 21.92614 | 36965 ft | 484 kts | 180° |
| 2026-05-04 20:01 | 48.57874 | 21.92639 | 37353 ft | 483 kts | 180° |
| 2026-05-04 20:02 | 48.54503 | 21.92675 | 37624 ft | 485 kts | 180° |
| 2026-05-04 20:02 | 48.47697 | 21.92730 | 37994 ft | 490 kts | 181° |
| 2026-05-04 20:02 | 48.44291 | 21.92691 | 38386 ft | 489 kts | 181° |
| 2026-05-04 20:03 | 48.40883 | 21.92689 | 38507 ft | 490 kts | 178° |
| 2026-05-04 20:03 | 48.37492 | 21.93347 | 38645 ft | 493 kts | 166° |
| 2026-05-04 20:03 | 48.34230 | 21.94877 | 38947 ft | 491 kts | 159° |
| 2026-05-04 20:03 | 48.31100 | 21.96933 | 39048 ft | 493 kts | 153° |
| 2026-05-04 20:04 | 48.28093 | 21.99407 | 39046 ft | 491 kts | 148° |
| 2026-05-04 20:04 | 48.22609 | 22.05372 | 39051 ft | 484 kts | 141° |
| 2026-05-04 20:05 | 48.17345 | 22.11672 | 39061 ft | 483 kts | 141° |
| 2026-05-04 20:05 | 48.12085 | 22.17941 | 39061 ft | 484 kts | 141° |
| 2026-05-04 20:06 | 48.06823 | 22.24128 | 39058 ft | 484 kts | 141° |
| 2026-05-04 20:06 | 48.01509 | 22.30324 | 39063 ft | 485 kts | 141° |
| 2026-05-04 20:07 | 47.96171 | 22.36527 | 39064 ft | 486 kts | 141° |
| 2026-05-04 20:07 | 47.90829 | 22.42723 | 39067 ft | 487 kts | 141° |
| 2026-05-04 20:08 | 47.85468 | 22.48924 | 39068 ft | 488 kts | 141° |
| 2026-05-04 20:08 | 47.80099 | 22.55119 | 39068 ft | 488 kts | 142° |
| 2026-05-04 20:09 | 47.74730 | 22.61297 | 39074 ft | 488 kts | 142° |
| 2026-05-04 20:09 | 47.69360 | 22.67460 | 39077 ft | 488 kts | 142° |
| 2026-05-04 20:10 | 47.63990 | 22.73607 | 39077 ft | 487 kts | 142° |
| 2026-05-04 20:10 | 47.58628 | 22.79728 | 39075 ft | 486 kts | 142° |
| 2026-05-04 20:11 | 47.53269 | 22.85829 | 39076 ft | 486 kts | 142° |
| 2026-05-04 20:11 | 47.47924 | 22.91932 | 39077 ft | 485 kts | 141° |
| 2026-05-04 20:12 | 47.42591 | 22.98043 | 39080 ft | 485 kts | 141° |
| 2026-05-04 20:12 | 47.37243 | 23.04109 | 39080 ft | 485 kts | 142° |
| 2026-05-04 20:13 | 47.31884 | 23.10141 | 39087 ft | 485 kts | 142° |
| 2026-05-04 20:13 | 47.26518 | 23.16159 | 39087 ft | 485 kts | 142° |
| 2026-05-04 20:14 | 47.21150 | 23.22166 | 39092 ft | 485 kts | 142° |
| 2026-05-04 20:14 | 47.15774 | 23.28168 | 39096 ft | 485 kts | 142° |
| 2026-05-04 20:15 | 47.10396 | 23.34157 | 39096 ft | 486 kts | 142° |
| 2026-05-04 20:15 | 47.05005 | 23.40144 | 39090 ft | 486 kts | 142° |
| 2026-05-04 20:16 | 46.99645 | 23.46082 | 39093 ft | 487 kts | 142° |
| 2026-05-04 20:16 | 46.94235 | 23.52060 | 39086 ft | 487 kts | 142° |
| 2026-05-04 20:17 | 46.88782 | 23.58070 | 39084 ft | 488 kts | 142° |
| 2026-05-04 20:17 | 46.83357 | 23.64033 | 39071 ft | 488 kts | 142° |
| 2026-05-04 20:18 | 46.77919 | 23.69995 | 39077 ft | 489 kts | 142° |
| 2026-05-04 20:18 | 46.72480 | 23.75943 | 39077 ft | 489 kts | 142° |
| 2026-05-04 20:19 | 46.67033 | 23.81884 | 39077 ft | 489 kts | 142° |
| 2026-05-04 20:19 | 46.61585 | 23.87812 | 39084 ft | 489 kts | 142° |
| 2026-05-04 20:20 | 46.56126 | 23.93736 | 39078 ft | 489 kts | 142° |
| 2026-05-04 20:20 | 46.50674 | 23.99639 | 39079 ft | 489 kts | 142° |
| 2026-05-04 20:21 | 46.46136 | 24.04542 | 39073 ft | 489 kts | 142° |
| 2026-05-04 20:21 | 46.37595 | 24.12608 | 39075 ft | 490 kts | 154° |
| 2026-05-04 20:22 | 46.31380 | 24.16657 | 39082 ft | 490 kts | 155° |
| 2026-05-04 20:22 | 46.25141 | 24.20666 | 39082 ft | 491 kts | 155° |
| 2026-05-04 20:23 | 46.18915 | 24.24710 | 39078 ft | 491 kts | 155° |
| 2026-05-04 20:23 | 46.12691 | 24.28779 | 39078 ft | 491 kts | 155° |
| 2026-05-04 20:24 | 46.06467 | 24.32845 | 39084 ft | 491 kts | 155° |
| 2026-05-04 20:24 | 46.00250 | 24.36893 | 39090 ft | 491 kts | 155° |
| 2026-05-04 20:25 | 45.94024 | 24.40935 | 39089 ft | 490 kts | 155° |
| 2026-05-04 20:25 | 45.87790 | 24.44973 | 38729 ft | 494 kts | 155° |
| 2026-05-04 20:26 | 45.84657 | 24.46998 | 38146 ft | 493 kts | 155° |
| 2026-05-04 20:26 | 45.81540 | 24.49010 | 37517 ft | 489 kts | 155° |
| 2026-05-04 20:26 | 45.78444 | 24.51006 | 36911 ft | 486 kts | 155° |
| 2026-05-04 20:26 | 45.75370 | 24.52985 | 36324 ft | 483 kts | 155° |
| 2026-05-04 20:27 | 45.72316 | 24.54950 | 35761 ft | 480 kts | 155° |
| 2026-05-04 20:27 | 45.69276 | 24.56903 | 35198 ft | 478 kts | 155° |
| 2026-05-04 20:27 | 45.66240 | 24.58851 | 34523 ft | 479 kts | 155° |
| 2026-05-04 20:27 | 45.63198 | 24.60801 | 33771 ft | 480 kts | 155° |
| 2026-05-04 20:28 | 45.60186 | 24.62730 | 32993 ft | 481 kts | 155° |
| 2026-05-04 20:28 | 45.57144 | 24.64675 | 32159 ft | 464 kts | 155° |
| 2026-05-04 20:28 | 45.54257 | 24.66517 | 31359 ft | 445 kts | 155° |
| 2026-05-04 20:28 | 45.51481 | 24.68287 | 30603 ft | 429 kts | 155° |
| 2026-05-04 20:29 | 45.48798 | 24.69997 | 29804 ft | 415 kts | 155° |
| 2026-05-04 20:29 | 45.46201 | 24.71650 | 28951 ft | 404 kts | 155° |
| 2026-05-04 20:29 | 45.43656 | 24.73269 | 28142 ft | 398 kts | 155° |
| 2026-05-04 20:29 | 45.41162 | 24.74854 | 27361 ft | 397 kts | 155° |
| 2026-05-04 20:30 | 45.38608 | 24.76475 | 26589 ft | 397 kts | 155° |
| 2026-05-04 20:30 | 45.36095 | 24.78069 | 25847 ft | 394 kts | 155° |
| 2026-05-04 20:30 | 45.33631 | 24.79630 | 25134 ft | 391 kts | 155° |
| 2026-05-04 20:30 | 45.31156 | 24.81196 | 24414 ft | 388 kts | 154° |
| 2026-05-04 20:31 | 45.28701 | 24.82748 | 23727 ft | 385 kts | 154° |
| 2026-05-04 20:31 | 45.26269 | 24.84284 | 22909 ft | 381 kts | 154° |
| 2026-05-04 20:31 | 45.23857 | 24.85806 | 22104 ft | 377 kts | 154° |
| 2026-05-04 20:31 | 45.21474 | 24.87308 | 21330 ft | 372 kts | 153° |
| 2026-05-04 20:32 | 45.19131 | 24.88783 | 20565 ft | 365 kts | 153° |
| 2026-05-04 20:32 | 45.16833 | 24.90228 | 19824 ft | 358 kts | 153° |
| 2026-05-04 20:32 | 45.14581 | 24.91643 | 19118 ft | 351 kts | 153° |
| 2026-05-04 20:32 | 45.12373 | 24.93030 | 18639 ft | 344 kts | 153° |
| 2026-05-04 20:33 | 45.10188 | 24.94403 | 18119 ft | 346 kts | 152° |
| 2026-05-04 20:33 | 45.07939 | 24.95819 | 17631 ft | 364 kts | 153° |
| 2026-05-04 20:33 | 45.05538 | 24.97336 | 17101 ft | 395 kts | 153° |
| 2026-05-04 20:33 | 45.02953 | 24.98965 | 16506 ft | 413 kts | 153° |
| 2026-05-04 20:34 | 45.00313 | 25.00613 | 15911 ft | 414 kts | 153° |
| 2026-05-04 20:34 | 44.97685 | 25.02247 | 15324 ft | 411 kts | 153° |
| 2026-05-04 20:34 | 44.95083 | 25.03865 | 14743 ft | 406 kts | 153° |
| 2026-05-04 20:34 | 44.92512 | 25.05464 | 14170 ft | 402 kts | 153° |
| 2026-05-04 20:35 | 44.89964 | 25.07049 | 13580 ft | 399 kts | 153° |
| 2026-05-04 20:35 | 44.87434 | 25.08625 | 12964 ft | 395 kts | 153° |
| 2026-05-04 20:35 | 44.84935 | 25.10180 | 12382 ft | 391 kts | 153° |
| 2026-05-04 20:35 | 44.82459 | 25.11719 | 11829 ft | 387 kts | 153° |
| 2026-05-04 20:36 | 44.80009 | 25.13241 | 11286 ft | 383 kts | 153° |
| 2026-05-04 20:36 | 44.77581 | 25.14746 | 10909 ft | 374 kts | 153° |
| 2026-05-04 20:36 | 44.75440 | 25.16551 | 10735 ft | 349 kts | 135° |
| 2026-05-04 20:36 | 44.73936 | 25.19082 | 10617 ft | 328 kts | 119° |
| 2026-05-04 20:37 | 44.72727 | 25.21727 | 10479 ft | 316 kts | 118° |
| 2026-05-04 20:37 | 44.71567 | 25.24290 | 10335 ft | 306 kts | 118° |
| 2026-05-04 20:37 | 44.70443 | 25.26774 | 10214 ft | 296 kts | 117° |
| 2026-05-04 20:37 | 44.69350 | 25.29180 | 10092 ft | 288 kts | 117° |
| 2026-05-04 20:38 | 44.68277 | 25.31532 | 9808 ft | 285 kts | 117° |
| 2026-05-04 20:38 | 44.67208 | 25.33870 | 9481 ft | 284 kts | 117° |
| 2026-05-04 20:38 | 44.66143 | 25.36194 | 9158 ft | 282 kts | 117° |
| 2026-05-04 20:38 | 44.65079 | 25.38507 | 8831 ft | 281 kts | 118° |
| 2026-05-04 20:39 | 44.64018 | 25.40808 | 8520 ft | 280 kts | 117° |
| 2026-05-04 20:39 | 44.62958 | 25.43105 | 8190 ft | 280 kts | 118° |
| 2026-05-04 20:39 | 44.61902 | 25.45390 | 7878 ft | 279 kts | 117° |
| 2026-05-04 20:39 | 44.60847 | 25.47668 | 7564 ft | 278 kts | 118° |
| 2026-05-04 20:40 | 44.59796 | 25.49939 | 7247 ft | 277 kts | 117° |
| 2026-05-04 20:40 | 44.58746 | 25.52206 | 6942 ft | 277 kts | 117° |
| 2026-05-04 20:40 | 44.57696 | 25.54469 | 6624 ft | 276 kts | 118° |
| 2026-05-04 20:40 | 44.56662 | 25.56695 | 6294 ft | 276 kts | 118° |
| 2026-05-04 20:41 | 44.55615 | 25.58947 | 5958 ft | 276 kts | 118° |
| 2026-05-04 20:41 | 44.54593 | 25.61201 | 5630 ft | 269 kts | 112° |
| 2026-05-04 20:41 | 44.54144 | 25.63651 | 5320 ft | 256 kts | 86° |
| 2026-05-04 20:41 | 44.54304 | 25.66093 | 5066 ft | 249 kts | 80° |
| 2026-05-04 20:42 | 44.54516 | 25.68448 | 4784 ft | 238 kts | 78° |
| 2026-05-04 20:42 | 44.54771 | 25.70689 | 4452 ft | 227 kts | 79° |
| 2026-05-04 20:42 | 44.54972 | 25.72786 | 4117 ft | 207 kts | 81° |
| 2026-05-04 20:42 | 44.55134 | 25.74765 | 3822 ft | 202 kts | 81° |
| 2026-05-04 20:43 | 44.55282 | 25.76674 | 3624 ft | 190 kts | 82° |
| 2026-05-04 20:43 | 44.55415 | 25.78441 | 3370 ft | 176 kts | 82° |
| 2026-05-04 20:43 | 44.55540 | 25.80098 | 3066 ft | 165 kts | 82° |
| 2026-05-04 20:43 | 44.55657 | 25.81654 | 3085 ft | 155 kts | 82° |
| 2026-05-04 20:44 | 44.55772 | 25.83105 | 3021 ft | 146 kts | 82° |
| 2026-05-04 20:44 | 44.55884 | 25.84508 | 3067 ft | 144 kts | 81° |
| 2026-05-04 20:44 | 44.55996 | 25.85914 | 3121 ft | 146 kts | 82° |
| 2026-05-04 20:44 | 44.56093 | 25.87321 | 3188 ft | 145 kts | 82° |
| 2026-05-04 20:45 | 44.56190 | 25.88736 | 3188 ft | 148 kts | 82° |
| 2026-05-04 20:45 | 44.56288 | 25.90174 | 3027 ft | 147 kts | 82° |
| 2026-05-04 20:45 | 44.56396 | 25.91606 | 2767 ft | 149 kts | 82° |
| 2026-05-04 20:45 | 44.56515 | 25.93038 | 2437 ft | 145 kts | 81° |
| 2026-05-04 20:46 | 44.56626 | 25.94426 | 2259 ft | 143 kts | 82° |
| 2026-05-04 20:46 | 44.56727 | 25.95830 | 2146 ft | 147 kts | 82° |
| 2026-05-04 20:46 | 44.56832 | 25.97264 | 1959 ft | 148 kts | 82° |
| 2026-05-04 20:46 | 44.56935 | 25.98702 | 1720 ft | 148 kts | 82° |
| 2026-05-04 20:47 | 44.57037 | 26.00125 | 1455 ft | 145 kts | 83° |
| 2026-05-04 20:47 | 44.57139 | 26.01519 | 1285 ft | 143 kts | 83° |
| 2026-05-04 20:47 | 44.57256 | 26.02916 | 1116 ft | 144 kts | 82° |
| 2026-05-04 20:47 | 44.57369 | 26.04301 | 995 ft | 144 kts | 84° |
| 2026-05-04 20:48 | 44.57451 | 26.05705 | 737 ft | 143 kts | 85° |
| 2026-05-04 20:48 | 44.57557 | 26.07062 | 580 ft | 140 kts | 83° |
| 2026-05-04 20:48 | 44.57662 | 26.08418 | 386 ft | 141 kts | 84° |
| 2026-05-04 20:48 | 44.57763 | 26.09738 | 329 ft | 125 kts | 83° |
| 2026-05-04 20:49 | 44.57835 | 26.10714 | 325 ft | 49 kts | 88° |
| 2026-05-04 20:49 | 44.57776 | 26.11081 | 323 ft | 21 kts | 114° |
| 2026-05-04 20:49 | 44.57734 | 26.11145 | 324 ft | 4 kts | 188° |
| 2026-05-04 20:49 | 44.57697 | 26.11095 | 323 ft | 18 kts | 243° |
| 2026-05-04 20:50 | 44.57668 | 26.10834 | 323 ft | 30 kts | 263° |
| 2026-05-04 20:50 | 44.57649 | 26.10543 | 325 ft | 30 kts | 264° |
| 2026-05-04 20:50 | 44.57625 | 26.10253 | 323 ft | 30 kts | 265° |
| 2026-05-04 20:50 | 44.57602 | 26.09962 | 327 ft | 30 kts | 264° |
| 2026-05-04 20:51 | 44.57579 | 26.09672 | 325 ft | 30 kts | 263° |
| 2026-05-04 20:51 | 44.57558 | 26.09381 | 326 ft | 30 kts | 264° |
| 2026-05-04 20:51 | 44.57537 | 26.09091 | 325 ft | 30 kts | 264° |
| 2026-05-04 20:51 | 44.57515 | 26.08800 | 325 ft | 30 kts | 264° |
| 2026-05-04 20:52 | 44.57492 | 26.08531 | 325 ft | 14 kts | 250° |
| 2026-05-04 20:52 | 44.57404 | 26.08484 | 324 ft | 15 kts | 175° |
| 2026-05-04 20:52 | 44.57300 | 26.08495 | 326 ft | 15 kts | 175° |
| 2026-05-04 20:52 | 44.57234 | 26.08446 | 324 ft | 8 kts | 252° |
| 2026-05-04 20:53 | 44.57201 | 26.08385 | 323 ft | 9 kts | 199° |
| 2026-05-04 20:53 | 44.57137 | 26.08372 | 324 ft | 10 kts | 193° |
| 2026-05-04 20:53 | 44.57094 | 26.08308 | 323 ft | 8 kts | 252° |
| 2026-05-04 20:53 | 44.57091 | 26.08281 | 323 ft | 0 kts | 262° |